Leon Hermes — A8OK8 — position and weather

sailwx.info

Track history (hours):
 
Tides and Currents Weather Stations Pressure Air Temp Water Temp Dewpoint Dewpoint Depression Visibility Wind Speed Wind Dir Waves Ship Positions

Leon Hermes

Last reported at 2017-Oct-12 11:00 UTC. Time now 2017-Oct-19 11:29 UTC.
Position N 27°40' W 015°13'.

Length 176 m; draft 10.3 m.

Type: Tanker. MMSI: 636013645.

Date/timePositionNaut miles runAvg speedWind from/ knotsBaromVisibWave heightAir tempDewpointWater temp
2017-Oct-12 11:00N 27°40' W 015°13'714.3
2017-Oct-12 10:30N 27°47' W 015°10'713.9
2017-Oct-12 10:00N 27°53' W 015°07'713.9
2017-Oct-12 09:30N 27°60' W 015°04'713.9
2017-Oct-12 09:00N 28°06' W 015°01'714.0
2017-Oct-12 08:30N 28°13' W 014°59'714.0
2017-Oct-12 08:00N 28°19' W 014°56'713.3
2017-Oct-12 07:30N 28°26' W 014°54'612.9
2017-Oct-12 07:00N 28°32' W 014°52'713.0
2017-Oct-12 06:30N 28°38' W 014°50'613.0
2017-Oct-12 06:00N 28°45' W 014°49'713.1
2017-Oct-12 05:30N 28°51' W 014°47'713.3
2017-Oct-12 05:00N 28°58' W 014°46'1713.3
2017-Oct-12 03:42N 29°14' W 014°41'513.6
2017-Oct-12 03:21N 29°19' W 014°40'514.0
2017-Oct-12 03:00N 29°24' W 014°38'714.4
2017-Oct-12 02:30N 29°31' W 014°36'714.1
2017-Oct-12 02:00N 29°38' W 014°34'713.9
2017-Oct-12 01:30N 29°44' W 014°32'913.7
2017-Oct-12 00:49N 29°53' W 014°30'413.7
2017-Oct-12 00:30N 29°58' W 014°29'713.5
2017-Oct-12 00:00N 30°04' W 014°27'1213.7
2017-Oct-11 23:09N 30°16' W 014°24'1214.1
2017-Oct-11 22:16N 30°28' W 014°21'414.3
2017-Oct-11 22:00N 30°31' W 014°20'28713.0
2017-Oct-11 00:00N 35°11' W 013°01'612.8
2017-Oct-10 23:30N 35°17' W 012°59'612.9
2017-Oct-10 23:00N 35°23' W 012°57'612.9
2017-Oct-10 22:30N 35°30' W 012°55'713.0
2017-Oct-10 22:00N 35°36' W 012°54'1212.9
2017-Oct-10 21:04N 35°48' W 012°50'112.9
2017-Oct-10 21:00N 35°48' W 012°50'612.9
2017-Oct-10 20:30N 35°55' W 012°48'712.9
2017-Oct-10 19:56N 36°02' W 012°46'612.9
2017-Oct-10 19:30N 36°07' W 012°45'613.1
2017-Oct-10 19:00N 36°14' W 012°43'713.0
2017-Oct-10 18:30N 36°20' W 012°41'613.0
2017-Oct-10 18:00N 36°26' W 012°39'713.2
2017-Oct-10 17:30N 36°33' W 012°37'713.2
2017-Oct-10 17:00N 36°39' W 012°35'713.2
2017-Oct-10 16:30N 36°46' W 012°33'713.5
2017-Oct-10 16:00N 36°52' W 012°31'713.4
2017-Oct-10 15:30N 36°59' W 012°29'713.1
2017-Oct-10 15:00N 37°05' W 012°27'1413.0
2017-Oct-10 13:56N 37°19' W 012°24'713.4
2017-Oct-10 13:26N 37°25' W 012°22'613.1
2017-Oct-10 13:01N 37°31' W 012°20'713.1
2017-Oct-10 12:29N 37°37' W 012°18'812.9
2017-Oct-10 11:52N 37°45' W 012°16'513.1
2017-Oct-10 11:29N 37°50' W 012°14'713.6
2017-Oct-10 11:01N 37°56' W 012°12'713.9
2017-Oct-10 10:30N 38°03' W 012°10'713.6
2017-Oct-10 10:00N 38°10' W 012°08'713.3
2017-Oct-10 09:30N 38°16' W 012°06'713.2
2017-Oct-10 08:59N 38°23' W 012°04'613.2
2017-Oct-10 08:30N 38°29' W 012°02'713.1
2017-Oct-10 08:00N 38°35' W 012°01'713.1
2017-Oct-10 07:30N 38°42' W 011°59'713.3
2017-Oct-10 07:00N 38°48' W 011°57'713.5
2017-Oct-10 06:30N 38°55' W 011°55'713.6
2017-Oct-10 06:00N 39°01' W 011°52'713.5
2017-Oct-10 05:29N 39°08' W 011°51'813.3
2017-Oct-10 04:54N 39°16' W 011°49'513.4
2017-Oct-10 04:30N 39°21' W 011°47'713.2
2017-Oct-10 04:00N 39°27' W 011°45'713.4
2017-Oct-10 03:30N 39°34' W 011°43'713.4
2017-Oct-10 03:00N 39°40' W 011°41'713.4
2017-Oct-10 02:30N 39°47' W 011°39'713.6
2017-Oct-10 02:00N 39°53' W 011°37'713.7
2017-Oct-10 01:30N 40°00' W 011°35'713.5
2017-Oct-10 01:00N 40°07' W 011°33'713.2
2017-Oct-10 00:30N 40°13' W 011°31'713.3
2017-Oct-10 00:00N 40°20' W 011°29'713.1
2017-Oct-09 23:29N 40°26' W 011°27'613.0
2017-Oct-09 22:59N 40°32' W 011°25'613.1
2017-Oct-09 22:30N 40°39' W 011°23'713.5
2017-Oct-09 22:00N 40°45' W 011°20'713.4
2017-Oct-09 21:29N 40°52' W 011°18'713.4
2017-Oct-09 20:57N 40°59' W 011°16'3913.5
2017-Oct-09 18:05N 41°36' W 011°04'113.4
2017-Oct-09 18:00N 41°37' W 011°04'56412.8
2017-Oct-07 21:54N 49°40' W 004°07'2711.4
2017-Oct-07 19:33N 49°52' W 003°29'0 9.9
2017-Oct-07 19:30N 49°52' W 003°29'5 9.7
2017-Oct-07 19:01N 49°52' W 003°21'5 9.9
2017-Oct-07 18:30N 49°53' W 003°14'710.1
2017-Oct-07 17:51N 49°56' W 003°04'410.6
2017-Oct-07 17:30N 49°57' W 002°59'811.3
2017-Oct-07 16:50N 49°60' W 002°48'9611.8
2017-Oct-07 08:43N 50°27' W 000°25'2 9.0
2017-Oct-07 08:30N 50°27' W 000°22'5 9.2
2017-Oct-07 08:00N 50°29' W 000°15'510.0
2017-Oct-07 07:30N 50°30' W 000°07'510.7
2017-Oct-07 07:00N 50°32' E 000°01'611.6
2017-Oct-07 06:30N 50°33' E 000°10'612.3
2017-Oct-07 06:00N 50°35' E 000°19'612.9
2017-Oct-07 05:30N 50°37' E 000°29'612.9
2017-Oct-07 05:01N 50°40' E 000°38'612.9
2017-Oct-07 04:31N 50°43' E 000°46'612.6
2017-Oct-07 04:00N 50°47' E 000°54'1411.8
2017-Oct-07 02:51N 50°55' E 001°12'411.0
2017-Oct-07 02:27N 50°58' E 001°17'510.1
2017-Oct-07 01:57N 51°02' E 001°22'4 9.4
2017-Oct-07 01:30N 51°04' E 001°27'4 9.0
2017-Oct-07 01:01N 51°07' E 001°33'4 8.9
2017-Oct-07 00:31N 51°10' E 001°39'5 9.5
2017-Oct-07 00:00N 51°13' E 001°44'510.5
2017-Oct-06 23:30N 51°17' E 001°49'611.9
2017-Oct-06 23:01N 51°23' E 001°53'713.3
2017-Oct-06 22:30N 51°29' E 001°58'714.2
2017-Oct-06 22:00N 51°34' E 002°06'814.4
2017-Oct-06 21:28N 51°40' E 002°14'7911.3
2017-Oct-06 14:28N 52°31' E 003°52'5 9.1
2017-Oct-06 13:58N 52°31' E 003°60'4 9.0
2017-Oct-06 13:30N 52°31' E 004°07'4 9.1
2017-Oct-06 13:01N 52°31' E 004°14'4 8.6
2017-Oct-06 12:30N 52°30' E 004°21'3 6.5
2017-Oct-06 12:00N 52°29' E 004°26'1 2.1
2017-Oct-06 11:30N 52°29' E 004°28'4 7.6
2017-Oct-06 11:01N 52°28' E 004°34'2 3.3
2017-Oct-06 10:30N 52°28' E 004°37'0 0.9
2017-Oct-06 10:00N 52°28' E 004°37'1 1.6
2017-Oct-06 09:28N 52°28' E 004°39'2 4.2
2017-Oct-06 09:00N 52°27' E 004°41'4 7.2
2017-Oct-06 08:31N 52°26' E 004°47'2 4.1
2017-Oct-06 07:58N 52°25' E 004°50'0 0.0
2017-Oct-06 07:28N 52°25' E 004°50'0 0.0
2017-Oct-06 06:55N 52°25' E 004°50'0 0.0
2017-Oct-06 06:28N 52°25' E 004°50'0 0.0
2017-Oct-06 05:58N 52°25' E 004°50'0 0.0
2017-Oct-06 05:25N 52°25' E 004°50'0 0.0
2017-Oct-06 04:58N 52°25' E 004°50'0 0.0
2017-Oct-06 04:25N 52°25' E 004°50'0 0.0
2017-Oct-06 03:58N 52°25' E 004°50'0 0.0
2017-Oct-06 03:28N 52°25' E 004°50'0 0.0
2017-Oct-06 02:49N 52°25' E 004°50'0 0.0
2017-Oct-06 02:28N 52°25' E 004°50'0 0.0
2017-Oct-06 01:58N 52°25' E 004°50'0 0.0
2017-Oct-06 01:28N 52°25' E 004°50'0 0.0
2017-Oct-06 00:58N 52°25' E 004°50'0 0.0
2017-Oct-06 00:28N 52°25' E 004°50'0 0.0
2017-Oct-05 23:58N 52°25' E 004°50'0 0.0
2017-Oct-05 23:28N 52°25' E 004°50'0 0.0
2017-Oct-05 22:58N 52°25' E 004°50'0 0.0
2017-Oct-05 22:28N 52°25' E 004°50'0 0.0
2017-Oct-05 21:58N 52°25' E 004°50'0 0.0
2017-Oct-05 21:28N 52°25' E 004°50'0 0.0
2017-Oct-05 20:58N 52°25' E 004°50'0 0.0
2017-Oct-05 20:28N 52°25' E 004°50'0 0.0
2017-Oct-05 19:58N 52°25' E 004°50'0 0.0
2017-Oct-05 19:28N 52°25' E 004°50'0 0.0
2017-Oct-05 18:58N 52°25' E 004°50'0 0.0
2017-Oct-05 18:28N 52°25' E 004°50'0 0.0
2017-Oct-05 17:58N 52°25' E 004°50'0 0.0
2017-Oct-05 17:28N 52°25' E 004°50'0 0.0
2017-Oct-05 16:55N 52°25' E 004°50'0 0.0
2017-Oct-05 15:28N 52°25' E 004°50'0 0.0
2017-Oct-05 14:58N 52°25' E 004°50'0 0.0
2017-Oct-05 14:28N 52°25' E 004°50'0 0.0
2017-Oct-05 13:58N 52°25' E 004°50'0 0.0
2017-Oct-05 13:28N 52°25' E 004°50'0 0.0
2017-Oct-05 12:58N 52°25' E 004°50'0 0.0
2017-Oct-05 12:28N 52°25' E 004°50'0 0.0
2017-Oct-05 11:58N 52°25' E 004°50'0 0.0
2017-Oct-05 11:28N 52°25' E 004°50'0 0.0
2017-Oct-05 10:58N 52°25' E 004°50'0 0.0
2017-Oct-05 10:28N 52°25' E 004°50'0 0.0
2017-Oct-05 09:55N 52°25' E 004°50'0 0.0
2017-Oct-05 09:25N 52°25' E 004°50'0 0.0
2017-Oct-05 08:52N 52°25' E 004°50'0 0.0
2017-Oct-05 08:28N 52°25' E 004°50'0 0.0
2017-Oct-05 07:58N 52°25' E 004°50'0 0.0
2017-Oct-05 07:28N 52°25' E 004°50'0 0.0
2017-Oct-05 06:58N 52°25' E 004°50'0 0.0
2017-Oct-05 06:28N 52°25' E 004°50'0 0.0
2017-Oct-05 05:58N 52°25' E 004°50'0 0.0
2017-Oct-05 05:25N 52°25' E 004°50'0 0.0
2017-Oct-05 04:58N 52°25' E 004°50'0 0.0
2017-Oct-05 04:28N 52°25' E 004°50'0 0.0
2017-Oct-05 03:58N 52°25' E 004°50'0 0.0
2017-Oct-05 03:28N 52°25' E 004°50'0 0.0
2017-Oct-05 02:58N 52°25' E 004°50'0 0.0
2017-Oct-05 02:28N 52°25' E 004°50'0 0.0
2017-Oct-05 01:58N 52°25' E 004°50'0 0.0
2017-Oct-05 01:28N 52°25' E 004°50'0 0.0
2017-Oct-05 00:58N 52°25' E 004°50'0 0.0
2017-Oct-05 00:28N 52°25' E 004°50'0 0.0
2017-Oct-04 23:58N 52°25' E 004°50'0 0.0
2017-Oct-04 23:28N 52°25' E 004°50'0 0.0
2017-Oct-04 22:58N 52°25' E 004°50'0 0.0
2017-Oct-04 22:28N 52°25' E 004°50'0 0.0
2017-Oct-04 21:58N 52°25' E 004°50'0 0.0
2017-Oct-04 21:28N 52°25' E 004°50'0 0.0
2017-Oct-04 20:58N 52°25' E 004°50'0 0.0
2017-Oct-04 20:28N 52°25' E 004°50'0 0.0
2017-Oct-04 19:58N 52°25' E 004°50'0 0.0
2017-Oct-04 19:28N 52°25' E 004°50'0 0.0
2017-Oct-04 18:55N 52°25' E 004°50'0 0.0
2017-Oct-04 18:28N 52°25' E 004°50'0 0.0
2017-Oct-04 17:55N 52°25' E 004°50'0 0.0
2017-Oct-04 17:25N 52°25' E 004°50'0 0.0
2017-Oct-04 16:55N 52°25' E 004°50'0 0.0
2017-Oct-04 16:28N 52°25' E 004°50'0 0.0
2017-Oct-04 15:58N 52°25' E 004°50'0 0.0
2017-Oct-04 15:28N 52°25' E 004°50'0 0.0
2017-Oct-04 14:58N 52°25' E 004°50'0 0.0
2017-Oct-04 14:22N 52°25' E 004°50'0 0.0
2017-Oct-04 13:58N 52°25' E 004°50'0 0.0
2017-Oct-04 13:28N 52°25' E 004°50'0 0.0
2017-Oct-04 12:58N 52°25' E 004°50'0 0.0
2017-Oct-04 12:28N 52°25' E 004°50'0 0.0
2017-Oct-04 11:58N 52°25' E 004°50'0 0.0
2017-Oct-04 11:28N 52°25' E 004°50'0 0.0
2017-Oct-04 10:58N 52°25' E 004°50'0 0.0
2017-Oct-04 10:28N 52°25' E 004°50'0 0.0
2017-Oct-04 09:58N 52°25' E 004°50'0 0.0
2017-Oct-04 09:28N 52°25' E 004°50'0 0.0
2017-Oct-04 08:58N 52°25' E 004°50'0 0.0
2017-Oct-04 08:22N 52°25' E 004°50'0 0.0
2017-Oct-04 07:58N 52°25' E 004°50'0 0.0
2017-Oct-04 07:25N 52°25' E 004°50'0 0.0
2017-Oct-04 06:58N 52°25' E 004°50'0 0.0
2017-Oct-04 06:28N 52°25' E 004°50'0 0.0
2017-Oct-04 05:58N 52°25' E 004°50'0 0.0
2017-Oct-04 05:28N 52°25' E 004°50'0 0.0
2017-Oct-04 04:58N 52°25' E 004°50'0 0.0
2017-Oct-04 04:25N 52°25' E 004°50'0 0.0
2017-Oct-04 03:58N 52°25' E 004°50'0 0.0
2017-Oct-04 03:28N 52°25' E 004°50'0 0.0
2017-Oct-04 03:00N 52°25' E 004°50'0 0.0
2017-Oct-04 02:31N 52°25' E 004°50'0 0.0
2017-Oct-04 02:00N 52°25' E 004°50'0 0.0
2017-Oct-04 01:31N 52°25' E 004°50'0 0.0
2017-Oct-04 01:00N 52°25' E 004°50'0 0.0
2017-Oct-04 00:31N 52°25' E 004°50'0 0.0
2017-Oct-04 00:01N 52°25' E 004°50'0 0.0
2017-Oct-03 23:30N 52°25' E 004°50'0 0.0
2017-Oct-03 23:00N 52°25' E 004°50'0 0.0
2017-Oct-03 22:30N 52°25' E 004°50'0 0.0
2017-Oct-03 22:01N 52°25' E 004°50'0 0.0
2017-Oct-03 21:30N 52°25' E 004°50'0 0.0
2017-Oct-03 21:00N 52°25' E 004°50'0 0.0
2017-Oct-03 20:30N 52°25' E 004°50'0 0.0
2017-Oct-03 20:01N 52°25' E 004°50'0 0.0
2017-Oct-03 19:30N 52°25' E 004°50'0 0.0
2017-Oct-03 19:01N 52°25' E 004°50'0 0.0
2017-Oct-03 18:30N 52°25' E 004°50'0 0.0
2017-Oct-03 18:01N 52°25' E 004°50'0 0.0
2017-Oct-03 17:30N 52°25' E 004°50'0 0.0
2017-Oct-03 17:00N 52°25' E 004°50'0 0.0
2017-Oct-03 16:30N 52°25' E 004°50'0 0.0
2017-Oct-03 16:01N 52°25' E 004°50'0 0.0
2017-Oct-03 15:30N 52°25' E 004°50'0 0.0
2017-Oct-03 15:00N 52°25' E 004°50'0 0.0
2017-Oct-03 14:00N 52°25' E 004°50'0 0.0
2017-Oct-03 13:30N 52°25' E 004°50'0 0.0
2017-Oct-03 13:00N 52°25' E 004°50'0 0.0
2017-Oct-03 12:31N 52°25' E 004°50'0 0.0
2017-Oct-03 12:00N 52°25' E 004°50'0 0.0
2017-Oct-03 11:30N 52°25' E 004°50'0 0.0
2017-Oct-03 11:00N 52°25' E 004°50'0 0.0
2017-Oct-03 10:30N 52°25' E 004°50'0 0.0
2017-Oct-03 10:00N 52°25' E 004°50'0 0.0
2017-Oct-03 09:30N 52°25' E 004°50'0 0.0
2017-Oct-03 09:01N 52°25' E 004°50'0 0.0
2017-Oct-03 08:30N 52°25' E 004°50'0 0.0
2017-Oct-03 08:01N 52°25' E 004°50'0 0.0
2017-Oct-03 07:30N 52°25' E 004°50'0 0.0
2017-Oct-03 07:00N 52°25' E 004°50'0 0.0
2017-Oct-03 06:30N 52°25' E 004°50'0 0.0
2017-Oct-03 06:00N 52°25' E 004°50'0 0.0
2017-Oct-03 05:31N 52°25' E 004°50'0 0.0
2017-Oct-03 05:01N 52°25' E 004°50'0 0.0
2017-Oct-03 04:30N 52°25' E 004°50'0 0.0
2017-Oct-03 04:00N 52°25' E 004°50'0 0.0
2017-Oct-03 03:31N 52°25' E 004°50'0 0.0
2017-Oct-03 03:01N 52°25' E 004°50'0 0.0
2017-Oct-03 02:30N 52°25' E 004°50'0 0.0
2017-Oct-03 02:00N 52°25' E 004°50'0 0.0
2017-Oct-03 01:30N 52°25' E 004°50'0 0.0
2017-Oct-03 01:00N 52°25' E 004°50'1 1.7
2017-Oct-03 00:30N 52°25' E 004°49'4 8.7
2017-Oct-03 00:00N 52°26' E 004°42'4 7.8
2017-Oct-02 23:31N 52°28' E 004°37'0 0.0
2017-Oct-02 23:00N 52°28' E 004°37'1 1.7
2017-Oct-02 22:30N 52°28' E 004°35'0 0.2
2017-Oct-02 22:01N 52°28' E 004°35'0 0.2
2017-Oct-02 21:30N 52°28' E 004°35'0 0.2
2017-Oct-02 21:00N 52°28' E 004°35'0 0.1
2017-Oct-02 20:30N 52°28' E 004°35'0 0.1
2017-Oct-02 20:01N 52°28' E 004°35'0 0.1
2017-Oct-02 19:30N 52°28' E 004°35'0 0.0
2017-Oct-02 19:00N 52°28' E 004°35'0 0.8
2017-Oct-02 18:30N 52°28' E 004°35'3 6.8
2017-Oct-02 18:00N 52°28' E 004°29'2 4.2
2017-Oct-02 17:31N 52°29' E 004°26'4 7.9
2017-Oct-02 17:00N 52°31' E 004°20'0 0.6
2017-Oct-02 16:28N 52°31' E 004°20'0 0.0
2017-Oct-02 15:58N 52°31' E 004°20'0 0.0
2017-Oct-02 15:22N 52°31' E 004°20'0 0.0
2017-Oct-02 14:58N 52°31' E 004°20'0 0.0
2017-Oct-02 14:28N 52°31' E 004°20'0 0.0
2017-Oct-02 13:58N 52°31' E 004°20'0 0.0
2017-Oct-02 13:19N 52°31' E 004°20'0 0.0
2017-Oct-02 12:55N 52°31' E 004°20'0 0.0
2017-Oct-02 12:28N 52°31' E 004°20'0 0.0
2017-Oct-02 11:55N 52°31' E 004°20'0 0.0
2017-Oct-02 11:28N 52°31' E 004°20'  
Track history (hours):
 
Tides and Currents Weather Stations Pressure Air Temp Water Temp Dewpoint Dewpoint Depression Visibility Wind Speed Wind Dir Waves Ship Positions

Leon Hermes

Last reported at 2017-Oct-12 11:00 UTC. Time now 2017-Oct-19 11:29 UTC.
Position N 27°40' W 015°13'.

Length 176 m; draft 10.3 m.

Type: Tanker. MMSI: 636013645.

Date/timePositionNaut miles runAvg speedWind from/ knotsBaromVisibWave heightAir tempDewpointWater temp
2017-Oct-12 11:00N 27°40' W 015°13'714.3
2017-Oct-12 10:30N 27°47' W 015°10'713.9
2017-Oct-12 10:00N 27°53' W 015°07'713.9
2017-Oct-12 09:30N 27°60' W 015°04'713.9
2017-Oct-12 09:00N 28°06' W 015°01'714.0
2017-Oct-12 08:30N 28°13' W 014°59'714.0
2017-Oct-12 08:00N 28°19' W 014°56'713.3
2017-Oct-12 07:30N 28°26' W 014°54'612.9
2017-Oct-12 07:00N 28°32' W 014°52'713.0
2017-Oct-12 06:30N 28°38' W 014°50'613.0
2017-Oct-12 06:00N 28°45' W 014°49'713.1
2017-Oct-12 05:30N 28°51' W 014°47'713.3
2017-Oct-12 05:00N 28°58' W 014°46'1713.3
2017-Oct-12 03:42N 29°14' W 014°41'513.6
2017-Oct-12 03:21N 29°19' W 014°40'514.0
2017-Oct-12 03:00N 29°24' W 014°38'714.4
2017-Oct-12 02:30N 29°31' W 014°36'714.1
2017-Oct-12 02:00N 29°38' W 014°34'713.9
2017-Oct-12 01:30N 29°44' W 014°32'913.7
2017-Oct-12 00:49N 29°53' W 014°30'413.7
2017-Oct-12 00:30N 29°58' W 014°29'713.5
2017-Oct-12 00:00N 30°04' W 014°27'1213.7
2017-Oct-11 23:09N 30°16' W 014°24'1214.1
2017-Oct-11 22:16N 30°28' W 014°21'414.3
2017-Oct-11 22:00N 30°31' W 014°20'28713.0
2017-Oct-11 00:00N 35°11' W 013°01'612.8
2017-Oct-10 23:30N 35°17' W 012°59'612.9
2017-Oct-10 23:00N 35°23' W 012°57'612.9
2017-Oct-10 22:30N 35°30' W 012°55'713.0
2017-Oct-10 22:00N 35°36' W 012°54'1212.9
2017-Oct-10 21:04N 35°48' W 012°50'112.9
2017-Oct-10 21:00N 35°48' W 012°50'612.9
2017-Oct-10 20:30N 35°55' W 012°48'712.9
2017-Oct-10 19:56N 36°02' W 012°46'612.9
2017-Oct-10 19:30N 36°07' W 012°45'613.1
2017-Oct-10 19:00N 36°14' W 012°43'713.0
2017-Oct-10 18:30N 36°20' W 012°41'613.0
2017-Oct-10 18:00N 36°26' W 012°39'713.2
2017-Oct-10 17:30N 36°33' W 012°37'713.2
2017-Oct-10 17:00N 36°39' W 012°35'713.2
2017-Oct-10 16:30N 36°46' W 012°33'713.5
2017-Oct-10 16:00N 36°52' W 012°31'713.4
2017-Oct-10 15:30N 36°59' W 012°29'713.1
2017-Oct-10 15:00N 37°05' W 012°27'1413.0
2017-Oct-10 13:56N 37°19' W 012°24'713.4
2017-Oct-10 13:26N 37°25' W 012°22'613.1
2017-Oct-10 13:01N 37°31' W 012°20'713.1
2017-Oct-10 12:29N 37°37' W 012°18'812.9
2017-Oct-10 11:52N 37°45' W 012°16'513.1
2017-Oct-10 11:29N 37°50' W 012°14'713.6
2017-Oct-10 11:01N 37°56' W 012°12'713.9
2017-Oct-10 10:30N 38°03' W 012°10'713.6
2017-Oct-10 10:00N 38°10' W 012°08'713.3
2017-Oct-10 09:30N 38°16' W 012°06'713.2
2017-Oct-10 08:59N 38°23' W 012°04'613.2
2017-Oct-10 08:30N 38°29' W 012°02'713.1
2017-Oct-10 08:00N 38°35' W 012°01'713.1
2017-Oct-10 07:30N 38°42' W 011°59'713.3
2017-Oct-10 07:00N 38°48' W 011°57'713.5
2017-Oct-10 06:30N 38°55' W 011°55'713.6
2017-Oct-10 06:00N 39°01' W 011°52'713.5
2017-Oct-10 05:29N 39°08' W 011°51'813.3
2017-Oct-10 04:54N 39°16' W 011°49'513.4
2017-Oct-10 04:30N 39°21' W 011°47'713.2
2017-Oct-10 04:00N 39°27' W 011°45'713.4
2017-Oct-10 03:30N 39°34' W 011°43'713.4
2017-Oct-10 03:00N 39°40' W 011°41'713.4
2017-Oct-10 02:30N 39°47' W 011°39'713.6
2017-Oct-10 02:00N 39°53' W 011°37'713.7
2017-Oct-10 01:30N 40°00' W 011°35'713.5
2017-Oct-10 01:00N 40°07' W 011°33'713.2
2017-Oct-10 00:30N 40°13' W 011°31'713.3
2017-Oct-10 00:00N 40°20' W 011°29'713.1
2017-Oct-09 23:29N 40°26' W 011°27'613.0
2017-Oct-09 22:59N 40°32' W 011°25'613.1
2017-Oct-09 22:30N 40°39' W 011°23'713.5
2017-Oct-09 22:00N 40°45' W 011°20'713.4
2017-Oct-09 21:29N 40°52' W 011°18'713.4
2017-Oct-09 20:57N 40°59' W 011°16'3913.5
2017-Oct-09 18:05N 41°36' W 011°04'113.4
2017-Oct-09 18:00N 41°37' W 011°04'56412.8
2017-Oct-07 21:54N 49°40' W 004°07'2711.4
2017-Oct-07 19:33N 49°52' W 003°29'0 9.9
2017-Oct-07 19:30N 49°52' W 003°29'5 9.7
2017-Oct-07 19:01N 49°52' W 003°21'5 9.9
2017-Oct-07 18:30N 49°53' W 003°14'710.1
2017-Oct-07 17:51N 49°56' W 003°04'410.6
2017-Oct-07 17:30N 49°57' W 002°59'811.3
2017-Oct-07 16:50N 49°60' W 002°48'9611.8
2017-Oct-07 08:43N 50°27' W 000°25'2 9.0
2017-Oct-07 08:30N 50°27' W 000°22'5 9.2
2017-Oct-07 08:00N 50°29' W 000°15'510.0
2017-Oct-07 07:30N 50°30' W 000°07'510.7
2017-Oct-07 07:00N 50°32' E 000°01'611.6
2017-Oct-07 06:30N 50°33' E 000°10'612.3
2017-Oct-07 06:00N 50°35' E 000°19'612.9
2017-Oct-07 05:30N 50°37' E 000°29'612.9
2017-Oct-07 05:01N 50°40' E 000°38'612.9
2017-Oct-07 04:31N 50°43' E 000°46'612.6
2017-Oct-07 04:00N 50°47' E 000°54'1411.8
2017-Oct-07 02:51N 50°55' E 001°12'411.0
2017-Oct-07 02:27N 50°58' E 001°17'510.1
2017-Oct-07 01:57N 51°02' E 001°22'4 9.4
2017-Oct-07 01:30N 51°04' E 001°27'4 9.0
2017-Oct-07 01:01N 51°07' E 001°33'4 8.9
2017-Oct-07 00:31N 51°10' E 001°39'5 9.5
2017-Oct-07 00:00N 51°13' E 001°44'510.5
2017-Oct-06 23:30N 51°17' E 001°49'611.9
2017-Oct-06 23:01N 51°23' E 001°53'713.3
2017-Oct-06 22:30N 51°29' E 001°58'714.2
2017-Oct-06 22:00N 51°34' E 002°06'814.4
2017-Oct-06 21:28N 51°40' E 002°14'7911.3
2017-Oct-06 14:28N 52°31' E 003°52'5 9.1
2017-Oct-06 13:58N 52°31' E 003°60'4 9.0
2017-Oct-06 13:30N 52°31' E 004°07'4 9.1
2017-Oct-06 13:01N 52°31' E 004°14'4 8.6
2017-Oct-06 12:30N 52°30' E 004°21'3 6.5
2017-Oct-06 12:00N 52°29' E 004°26'1 2.1
2017-Oct-06 11:30N 52°29' E 004°28'4 7.6
2017-Oct-06 11:01N 52°28' E 004°34'2 3.3
2017-Oct-06 10:30N 52°28' E 004°37'0 0.9
2017-Oct-06 10:00N 52°28' E 004°37'1 1.6
2017-Oct-06 09:28N 52°28' E 004°39'2 4.2
2017-Oct-06 09:00N 52°27' E 004°41'4 7.2
2017-Oct-06 08:31N 52°26' E 004°47'2 4.1
2017-Oct-06 07:58N 52°25' E 004°50'0 0.0
2017-Oct-06 07:28N 52°25' E 004°50'0 0.0
2017-Oct-06 06:55N 52°25' E 004°50'0 0.0
2017-Oct-06 06:28N 52°25' E 004°50'0 0.0
2017-Oct-06 05:58N 52°25' E 004°50'0 0.0
2017-Oct-06 05:25N 52°25' E 004°50'0 0.0
2017-Oct-06 04:58N 52°25' E 004°50'0 0.0
2017-Oct-06 04:25N 52°25' E 004°50'0 0.0
2017-Oct-06 03:58N 52°25' E 004°50'0 0.0
2017-Oct-06 03:28N 52°25' E 004°50'0 0.0
2017-Oct-06 02:49N 52°25' E 004°50'0 0.0
2017-Oct-06 02:28N 52°25' E 004°50'0 0.0
2017-Oct-06 01:58N 52°25' E 004°50'0 0.0
2017-Oct-06 01:28N 52°25' E 004°50'0 0.0
2017-Oct-06 00:58N 52°25' E 004°50'0 0.0
2017-Oct-06 00:28N 52°25' E 004°50'0 0.0
2017-Oct-05 23:58N 52°25' E 004°50'0 0.0
2017-Oct-05 23:28N 52°25' E 004°50'0 0.0
2017-Oct-05 22:58N 52°25' E 004°50'0 0.0
2017-Oct-05 22:28N 52°25' E 004°50'0 0.0
2017-Oct-05 21:58N 52°25' E 004°50'0 0.0
2017-Oct-05 21:28N 52°25' E 004°50'0 0.0
2017-Oct-05 20:58N 52°25' E 004°50'0 0.0
2017-Oct-05 20:28N 52°25' E 004°50'0 0.0
2017-Oct-05 19:58N 52°25' E 004°50'0 0.0
2017-Oct-05 19:28N 52°25' E 004°50'0 0.0
2017-Oct-05 18:58N 52°25' E 004°50'0 0.0
2017-Oct-05 18:28N 52°25' E 004°50'0 0.0
2017-Oct-05 17:58N 52°25' E 004°50'0 0.0
2017-Oct-05 17:28N 52°25' E 004°50'0 0.0
2017-Oct-05 16:55N 52°25' E 004°50'0 0.0
2017-Oct-05 15:28N 52°25' E 004°50'0 0.0
2017-Oct-05 14:58N 52°25' E 004°50'0 0.0
2017-Oct-05 14:28N 52°25' E 004°50'0 0.0
2017-Oct-05 13:58N 52°25' E 004°50'0 0.0
2017-Oct-05 13:28N 52°25' E 004°50'0 0.0
2017-Oct-05 12:58N 52°25' E 004°50'0 0.0
2017-Oct-05 12:28N 52°25' E 004°50'0 0.0
2017-Oct-05 11:58N 52°25' E 004°50'0 0.0
2017-Oct-05 11:28N 52°25' E 004°50'0 0.0
2017-Oct-05 10:58N 52°25' E 004°50'0 0.0
2017-Oct-05 10:28N 52°25' E 004°50'0 0.0
2017-Oct-05 09:55N 52°25' E 004°50'0 0.0
2017-Oct-05 09:25N 52°25' E 004°50'0 0.0
2017-Oct-05 08:52N 52°25' E 004°50'0 0.0
2017-Oct-05 08:28N 52°25' E 004°50'0 0.0
2017-Oct-05 07:58N 52°25' E 004°50'0 0.0
2017-Oct-05 07:28N 52°25' E 004°50'0 0.0
2017-Oct-05 06:58N 52°25' E 004°50'0 0.0
2017-Oct-05 06:28N 52°25' E 004°50'0 0.0
2017-Oct-05 05:58N 52°25' E 004°50'0 0.0
2017-Oct-05 05:25N 52°25' E 004°50'0 0.0
2017-Oct-05 04:58N 52°25' E 004°50'0 0.0
2017-Oct-05 04:28N 52°25' E 004°50'0 0.0
2017-Oct-05 03:58N 52°25' E 004°50'0 0.0
2017-Oct-05 03:28N 52°25' E 004°50'0 0.0
2017-Oct-05 02:58N 52°25' E 004°50'0 0.0
2017-Oct-05 02:28N 52°25' E 004°50'0 0.0
2017-Oct-05 01:58N 52°25' E 004°50'0 0.0
2017-Oct-05 01:28N 52°25' E 004°50'0 0.0
2017-Oct-05 00:58N 52°25' E 004°50'0 0.0
2017-Oct-05 00:28N 52°25' E 004°50'0 0.0
2017-Oct-04 23:58N 52°25' E 004°50'0 0.0
2017-Oct-04 23:28N 52°25' E 004°50'0 0.0
2017-Oct-04 22:58N 52°25' E 004°50'0 0.0
2017-Oct-04 22:28N 52°25' E 004°50'0 0.0
2017-Oct-04 21:58N 52°25' E 004°50'0 0.0
2017-Oct-04 21:28N 52°25' E 004°50'0 0.0
2017-Oct-04 20:58N 52°25' E 004°50'0 0.0
2017-Oct-04 20:28N 52°25' E 004°50'0 0.0
2017-Oct-04 19:58N 52°25' E 004°50'0 0.0
2017-Oct-04 19:28N 52°25' E 004°50'0 0.0
2017-Oct-04 18:55N 52°25' E 004°50'0 0.0
2017-Oct-04 18:28N 52°25' E 004°50'0 0.0
2017-Oct-04 17:55N 52°25' E 004°50'0 0.0
2017-Oct-04 17:25N 52°25' E 004°50'0 0.0
2017-Oct-04 16:55N 52°25' E 004°50'0 0.0
2017-Oct-04 16:28N 52°25' E 004°50'0 0.0
2017-Oct-04 15:58N 52°25' E 004°50'0 0.0
2017-Oct-04 15:28N 52°25' E 004°50'0 0.0
2017-Oct-04 14:58N 52°25' E 004°50'0 0.0
2017-Oct-04 14:22N 52°25' E 004°50'0 0.0
2017-Oct-04 13:58N 52°25' E 004°50'0 0.0
2017-Oct-04 13:28N 52°25' E 004°50'0 0.0
2017-Oct-04 12:58N 52°25' E 004°50'0 0.0
2017-Oct-04 12:28N 52°25' E 004°50'0 0.0
2017-Oct-04 11:58N 52°25' E 004°50'0 0.0
2017-Oct-04 11:28N 52°25' E 004°50'0 0.0
2017-Oct-04 10:58N 52°25' E 004°50'0 0.0
2017-Oct-04 10:28N 52°25' E 004°50'0 0.0
2017-Oct-04 09:58N 52°25' E 004°50'0 0.0
2017-Oct-04 09:28N 52°25' E 004°50'0 0.0
2017-Oct-04 08:58N 52°25' E 004°50'0 0.0
2017-Oct-04 08:22N 52°25' E 004°50'0 0.0
2017-Oct-04 07:58N 52°25' E 004°50'0 0.0
2017-Oct-04 07:25N 52°25' E 004°50'0 0.0
2017-Oct-04 06:58N 52°25' E 004°50'0 0.0
2017-Oct-04 06:28N 52°25' E 004°50'0 0.0
2017-Oct-04 05:58N 52°25' E 004°50'0 0.0
2017-Oct-04 05:28N 52°25' E 004°50'0 0.0
2017-Oct-04 04:58N 52°25' E 004°50'0 0.0
2017-Oct-04 04:25N 52°25' E 004°50'0 0.0
2017-Oct-04 03:58N 52°25' E 004°50'0 0.0
2017-Oct-04 03:28N 52°25' E 004°50'0 0.0
2017-Oct-04 03:00N 52°25' E 004°50'0 0.0
2017-Oct-04 02:31N 52°25' E 004°50'0 0.0
2017-Oct-04 02:00N 52°25' E 004°50'0 0.0
2017-Oct-04 01:31N 52°25' E 004°50'0 0.0
2017-Oct-04 01:00N 52°25' E 004°50'0 0.0
2017-Oct-04 00:31N 52°25' E 004°50'0 0.0
2017-Oct-04 00:01N 52°25' E 004°50'0 0.0
2017-Oct-03 23:30N 52°25' E 004°50'0 0.0
2017-Oct-03 23:00N 52°25' E 004°50'0 0.0
2017-Oct-03 22:30N 52°25' E 004°50'0 0.0
2017-Oct-03 22:01N 52°25' E 004°50'0 0.0
2017-Oct-03 21:30N 52°25' E 004°50'0 0.0
2017-Oct-03 21:00N 52°25' E 004°50'0 0.0
2017-Oct-03 20:30N 52°25' E 004°50'0 0.0
2017-Oct-03 20:01N 52°25' E 004°50'0 0.0
2017-Oct-03 19:30N 52°25' E 004°50'0 0.0
2017-Oct-03 19:01N 52°25' E 004°50'0 0.0
2017-Oct-03 18:30N 52°25' E 004°50'0 0.0
2017-Oct-03 18:01N 52°25' E 004°50'0 0.0
2017-Oct-03 17:30N 52°25' E 004°50'0 0.0
2017-Oct-03 17:00N 52°25' E 004°50'0 0.0
2017-Oct-03 16:30N 52°25' E 004°50'0 0.0
2017-Oct-03 16:01N 52°25' E 004°50'0 0.0
2017-Oct-03 15:30N 52°25' E 004°50'0 0.0
2017-Oct-03 15:00N 52°25' E 004°50'0 0.0
2017-Oct-03 14:00N 52°25' E 004°50'0 0.0
2017-Oct-03 13:30N 52°25' E 004°50'0 0.0
2017-Oct-03 13:00N 52°25' E 004°50'0 0.0
2017-Oct-03 12:31N 52°25' E 004°50'0 0.0
2017-Oct-03 12:00N 52°25' E 004°50'0 0.0
2017-Oct-03 11:30N 52°25' E 004°50'0 0.0
2017-Oct-03 11:00N 52°25' E 004°50'0 0.0
2017-Oct-03 10:30N 52°25' E 004°50'0 0.0
2017-Oct-03 10:00N 52°25' E 004°50'0 0.0
2017-Oct-03 09:30N 52°25' E 004°50'0 0.0
2017-Oct-03 09:01N 52°25' E 004°50'0 0.0
2017-Oct-03 08:30N 52°25' E 004°50'0 0.0
2017-Oct-03 08:01N 52°25' E 004°50'0 0.0
2017-Oct-03 07:30N 52°25' E 004°50'0 0.0
2017-Oct-03 07:00N 52°25' E 004°50'0 0.0
2017-Oct-03 06:30N 52°25' E 004°50'0 0.0
2017-Oct-03 06:00N 52°25' E 004°50'0 0.0
2017-Oct-03 05:31N 52°25' E 004°50'0 0.0
2017-Oct-03 05:01N 52°25' E 004°50'0 0.0
2017-Oct-03 04:30N 52°25' E 004°50'0 0.0
2017-Oct-03 04:00N 52°25' E 004°50'0 0.0
2017-Oct-03 03:31N 52°25' E 004°50'0 0.0
2017-Oct-03 03:01N 52°25' E 004°50'0 0.0
2017-Oct-03 02:30N 52°25' E 004°50'0 0.0
2017-Oct-03 02:00N 52°25' E 004°50'0 0.0
2017-Oct-03 01:30N 52°25' E 004°50'0 0.0
2017-Oct-03 01:00N 52°25' E 004°50'1 1.7
2017-Oct-03 00:30N 52°25' E 004°49'4 8.7
2017-Oct-03 00:00N 52°26' E 004°42'4 7.8
2017-Oct-02 23:31N 52°28' E 004°37'0 0.0
2017-Oct-02 23:00N 52°28' E 004°37'1 1.7
2017-Oct-02 22:30N 52°28' E 004°35'0 0.2
2017-Oct-02 22:01N 52°28' E 004°35'0 0.2
2017-Oct-02 21:30N 52°28' E 004°35'0 0.2
2017-Oct-02 21:00N 52°28' E 004°35'0 0.1
2017-Oct-02 20:30N 52°28' E 004°35'0 0.1
2017-Oct-02 20:01N 52°28' E 004°35'0 0.1
2017-Oct-02 19:30N 52°28' E 004°35'0 0.0
2017-Oct-02 19:00N 52°28' E 004°35'0 0.8
2017-Oct-02 18:30N 52°28' E 004°35'3 6.8
2017-Oct-02 18:00N 52°28' E 004°29'2 4.2
2017-Oct-02 17:31N 52°29' E 004°26'4 7.9
2017-Oct-02 17:00N 52°31' E 004°20'0 0.6
2017-Oct-02 16:28N 52°31' E 004°20'0 0.0
2017-Oct-02 15:58N 52°31' E 004°20'0 0.0
2017-Oct-02 15:22N 52°31' E 004°20'0 0.0
2017-Oct-02 14:58N 52°31' E 004°20'0 0.0
2017-Oct-02 14:28N 52°31' E 004°20'0 0.0
2017-Oct-02 13:58N 52°31' E 004°20'0 0.0
2017-Oct-02 13:19N 52°31' E 004°20'0 0.0
2017-Oct-02 12:55N 52°31' E 004°20'0 0.0
2017-Oct-02 12:28N 52°31' E 004°20'0 0.0
2017-Oct-02 11:55N 52°31' E 004°20'0 0.0
2017-Oct-02 11:28N 52°31' E 004°20'  

Dump ship's entire track history